createdAt,value
2023-04-05T00:00:10.569Z,1.10
2023-04-05T00:01:50.022Z,1.10
2023-04-05T00:03:24.212Z,1.10
2023-04-05T00:05:00.531Z,1.10
2023-04-05T00:06:32.836Z,1.10
2023-04-05T00:08:13.466Z,1.00
2023-04-05T00:09:46.342Z,1.10
2023-04-05T00:11:19.678Z,1.10
2023-04-05T00:12:54.313Z,1.10
2023-04-05T00:14:27.496Z,1.10
2023-04-05T00:16:01.225Z,1.00
2023-04-05T00:17:35.351Z,1.00
2023-04-05T00:19:08.989Z,1.00
2023-04-05T00:20:41.464Z,1.00
2023-04-05T00:22:14.946Z,1.00
2023-04-05T00:23:48.937Z,1.00
2023-04-05T00:25:22.774Z,1.00
2023-04-05T00:26:56.746Z,1.00
2023-04-05T00:28:30.391Z,0.90
2023-04-05T00:30:04.005Z,0.90
2023-04-05T00:31:36.301Z,0.90
2023-04-05T00:33:09.658Z,0.90
2023-04-05T00:34:42.990Z,1.00
2023-04-05T00:36:20.429Z,0.90
2023-04-05T00:37:53.819Z,0.90
2023-04-05T00:39:27.494Z,0.90
2023-04-05T00:40:59.780Z,0.80
2023-04-05T00:42:33.059Z,0.80
2023-04-05T00:44:08.463Z,0.80
2023-04-05T00:45:42.248Z,0.80
2023-04-05T00:47:16.143Z,0.80
2023-04-05T00:48:49.688Z,0.80
2023-04-05T00:50:23.863Z,0.70
2023-04-05T00:51:58.789Z,0.70
2023-04-05T00:53:33.080Z,0.70
2023-04-05T00:55:08.572Z,0.70
2023-04-05T00:56:41.789Z,0.70
2023-04-05T00:58:18.083Z,0.70
2023-04-05T00:59:52.796Z,0.60
2023-04-05T01:01:27.916Z,0.60
2023-04-05T01:03:05.175Z,0.60
2023-04-05T01:04:50.262Z,0.60
2023-04-05T01:06:37.541Z,0.60
2023-04-05T01:08:18.936Z,0.60
2023-04-05T01:09:58.977Z,0.50
2023-04-05T01:11:33.592Z,0.50
2023-04-05T01:13:08.743Z,0.50
2023-04-05T01:14:49.941Z,0.50
2023-04-05T01:16:25.238Z,0.50
2023-04-05T01:18:02.090Z,0.50
2023-04-05T01:19:35.144Z,0.40
2023-04-05T01:21:54.047Z,0.40
2023-04-05T01:23:51.079Z,0.40
2023-04-05T01:25:58.684Z,0.30
2023-04-05T01:28:00.732Z,0.30
2023-04-05T01:31:33.135Z,0.30
2023-04-05T01:33:16.352Z,0.20
2023-04-05T01:34:57.386Z,0.20
2023-04-05T01:36:40.737Z,0.20
2023-04-05T01:38:20.722Z,0.20
2023-04-05T01:39:54.410Z,0.10
2023-04-05T01:41:27.459Z,0.10
2023-04-05T01:43:03.082Z,0.10
2023-04-05T01:44:36.322Z,0.10
2023-04-05T01:46:09.595Z,0.10
2023-04-05T01:47:43.286Z,0.10
2023-04-05T01:49:16.610Z,0.10
2023-04-05T01:50:49.914Z,0.00
2023-04-05T01:52:22.226Z,0.00
2023-04-05T01:53:55.892Z,0.00
2023-04-05T01:55:29.189Z,0.00
2023-04-05T01:57:04.341Z,-0.10
2023-04-05T01:58:38.557Z,-0.10
2023-04-05T02:00:13.768Z,-0.10
2023-04-05T02:01:46.090Z,-0.10
2023-04-05T02:03:21.085Z,-0.10
2023-04-05T02:04:54.350Z,-0.10
2023-04-05T02:06:27.650Z,-0.10
2023-04-05T02:08:01.192Z,-0.10
2023-04-05T02:09:33.473Z,-0.20
2023-04-05T02:11:06.934Z,-0.20
2023-04-05T02:12:40.245Z,-0.20
2023-04-05T02:14:13.267Z,-0.20
2023-04-05T02:15:50.427Z,-0.20
2023-04-05T02:17:23.846Z,-0.20
2023-04-05T02:18:58.033Z,-0.30
2023-04-05T02:20:38.849Z,-0.30
2023-04-05T02:22:12.639Z,-0.30
2023-04-05T02:23:45.941Z,-0.30
2023-04-05T02:25:19.412Z,-0.30
2023-04-05T02:26:52.655Z,-0.30
2023-04-05T02:28:25.978Z,-0.40
2023-04-05T02:30:00.494Z,-0.40
2023-04-05T02:31:34.389Z,-0.40
2023-04-05T02:33:09.508Z,-0.40
2023-04-05T02:34:44.291Z,-0.40
2023-04-05T02:36:17.644Z,-0.40
2023-04-05T02:37:52.166Z,-0.40
2023-04-05T02:39:26.406Z,-0.40
2023-04-05T02:40:59.630Z,-0.40
2023-04-05T02:42:32.900Z,-0.50
2023-04-05T02:44:06.425Z,-0.50
2023-04-05T02:45:39.632Z,-0.50
2023-04-05T02:47:17.262Z,-0.50
2023-04-05T02:48:51.611Z,-0.50
2023-04-05T02:50:27.237Z,-0.50
2023-04-05T02:51:59.551Z,-0.60
2023-04-05T02:53:32.971Z,-0.60
2023-04-05T02:55:09.492Z,-0.50
2023-04-05T02:56:43.437Z,-0.60
2023-04-05T02:58:20.827Z,-0.60
2023-04-05T02:59:53.546Z,-0.60
2023-04-05T03:01:29.231Z,-0.60
2023-04-05T03:03:02.999Z,-0.70
2023-04-05T03:04:36.814Z,-0.70
2023-04-05T03:06:11.756Z,-0.70
2023-04-05T03:07:50.197Z,-0.70
2023-04-05T03:09:33.462Z,-0.70
2023-04-05T03:11:12.439Z,-0.70
2023-04-05T03:12:46.672Z,-0.70
2023-04-05T03:14:19.881Z,-0.70
2023-04-05T03:15:54.665Z,-0.80
2023-04-05T03:17:28.872Z,-0.80
2023-04-05T03:19:07.115Z,-0.80
2023-04-05T03:20:45.767Z,-0.80
2023-04-05T03:22:27.144Z,-0.80
2023-04-05T03:24:02.113Z,-0.80
2023-04-05T03:25:43.009Z,-0.80
2023-04-05T03:27:16.317Z,-0.80
2023-04-05T03:29:03.237Z,-0.80
2023-04-05T03:30:40.372Z,-0.90
2023-04-05T03:32:22.949Z,-0.90
2023-04-05T03:34:02.774Z,-0.90
2023-04-05T03:35:45.044Z,-0.90
2023-04-05T03:37:19.411Z,-0.90
2023-04-05T03:39:00.450Z,-0.90
2023-04-05T03:40:33.469Z,-1.00
2023-04-05T03:42:07.707Z,-1.00
2023-04-05T03:43:40.892Z,-1.00
2023-04-05T03:45:16.167Z,-1.00
2023-04-05T03:46:50.859Z,-1.00
2023-04-05T03:48:23.082Z,-1.00
2023-04-05T03:49:56.716Z,-1.00
2023-04-05T03:51:29.983Z,-1.00
2023-04-05T03:53:03.304Z,-1.10
2023-04-05T03:54:36.947Z,-1.10
2023-04-05T03:56:12.595Z,-1.10
2023-04-05T03:57:55.975Z,-1.10
2023-04-05T03:59:34.310Z,-1.10
2023-04-05T04:01:08.521Z,-1.10
2023-04-05T04:02:44.608Z,-1.10
2023-04-05T04:04:17.943Z,-1.10
2023-04-05T04:05:53.875Z,-1.10
2023-04-05T04:07:27.680Z,-1.20
2023-04-05T04:09:00.977Z,-1.20
2023-04-05T04:10:36.319Z,-1.20
2023-04-05T04:12:13.015Z,-1.20
2023-04-05T04:13:55.088Z,-1.30
2023-04-05T04:16:00.406Z,-1.20
2023-04-05T04:18:13.116Z,-1.20
2023-04-05T04:20:25.049Z,-1.30
2023-04-05T04:22:20.533Z,-1.30
2023-04-05T04:24:18.723Z,-1.30
2023-04-05T04:26:11.640Z,-1.30
2023-04-05T04:28:06.628Z,-1.20
2023-04-05T04:30:04.166Z,-1.30
2023-04-05T04:32:09.427Z,-1.30
2023-04-05T04:34:03.148Z,-1.30
2023-04-05T04:35:56.660Z,-1.40
2023-04-05T04:38:01.862Z,-1.30
2023-04-05T04:39:48.761Z,-1.40
2023-04-05T04:41:47.052Z,-1.40
2023-04-05T04:43:47.582Z,-1.40
2023-04-05T04:45:34.699Z,-1.40
2023-04-05T04:47:21.713Z,-1.40
2023-04-05T04:49:13.239Z,-1.50
2023-04-05T04:50:52.194Z,-1.50
2023-04-05T04:52:26.131Z,-1.50
2023-04-05T04:53:59.566Z,-1.50
2023-04-05T04:55:33.460Z,-1.50
2023-04-05T04:57:08.085Z,-1.50
2023-04-05T04:58:41.220Z,-1.50
2023-04-05T05:00:16.895Z,-1.50
2023-04-05T05:01:50.663Z,-1.50
2023-04-05T05:03:23.903Z,-1.60
2023-04-05T05:04:57.106Z,-1.60
2023-04-05T05:06:31.232Z,-1.60
2023-04-05T05:08:04.554Z,-1.60
2023-04-05T05:09:37.031Z,-1.60
2023-04-05T05:11:10.492Z,-1.60
2023-04-05T05:12:45.663Z,-1.60
2023-04-05T05:14:21.120Z,-1.60
2023-04-05T05:15:54.584Z,-1.60
2023-04-05T05:17:32.245Z,-1.70
2023-04-05T05:19:05.710Z,-1.70
2023-04-05T05:20:51.760Z,-1.70
2023-04-05T05:22:25.301Z,-1.70
2023-04-05T05:23:58.480Z,-1.70
2023-04-05T05:25:31.737Z,-1.70
2023-04-05T05:27:05.047Z,-1.70
2023-04-05T05:28:39.831Z,-1.70
2023-04-05T05:30:14.685Z,-1.70
2023-04-05T05:31:48.033Z,-1.70
2023-04-05T05:33:21.258Z,-1.70
2023-04-05T05:34:54.469Z,-1.70
2023-04-05T05:36:27.782Z,-1.70
2023-04-05T05:38:01.296Z,-1.70
2023-04-05T05:39:34.515Z,-1.70
2023-04-05T05:41:07.807Z,-1.70
2023-04-05T05:42:41.083Z,-1.70
2023-04-05T05:44:16.045Z,-1.70
2023-04-05T05:45:49.372Z,-1.70
2023-04-05T05:47:22.736Z,-1.70
2023-04-05T05:48:55.888Z,-1.70
2023-04-05T05:50:32.754Z,-1.70
2023-04-05T05:52:06.329Z,-1.70
2023-04-05T05:53:39.498Z,-1.70
2023-04-05T05:55:12.728Z,-1.70
2023-04-05T05:56:46.017Z,-1.70
2023-04-05T05:58:19.417Z,-1.70
2023-04-05T05:59:54.057Z,-1.70
2023-04-05T06:01:28.038Z,-1.80
2023-04-05T06:03:01.845Z,-1.70
2023-04-05T06:04:35.697Z,-1.70
2023-04-05T06:06:11.171Z,-1.70
2023-04-05T06:07:44.615Z,-1.70
2023-04-05T06:09:18.525Z,-1.70
2023-04-05T06:10:52.565Z,-1.70
2023-04-05T06:12:27.065Z,-1.70
2023-04-05T06:14:02.029Z,-1.70
2023-04-05T06:15:37.604Z,-1.60
2023-04-05T06:17:11.191Z,-1.60
2023-04-05T06:18:45.601Z,-1.60
2023-04-05T06:20:19.150Z,-1.60
2023-04-05T06:21:52.432Z,-1.60
2023-04-05T06:23:25.622Z,-1.60
2023-04-05T06:24:58.869Z,-1.50
2023-04-05T06:26:32.358Z,-1.50
2023-04-05T06:28:07.777Z,-1.50
2023-04-05T06:29:41.103Z,-1.40
2023-04-05T06:31:17.280Z,-1.40
2023-04-05T06:32:54.458Z,-1.40
2023-04-05T06:34:27.731Z,-1.30
2023-04-05T06:36:01.233Z,-1.30
2023-04-05T06:37:34.455Z,-1.30
2023-04-05T06:39:07.917Z,-1.10
2023-04-05T06:40:41.373Z,-1.20
2023-04-05T06:42:14.785Z,-1.20
2023-04-05T06:43:52.818Z,-1.10
2023-04-05T06:45:26.282Z,-1.10
2023-04-05T06:47:01.347Z,-1.00
2023-04-05T06:48:35.220Z,-1.00
2023-04-05T06:50:10.530Z,-1.00
2023-04-05T06:51:43.695Z,-0.90
2023-04-05T06:53:19.066Z,-0.90
2023-04-05T06:54:52.347Z,-0.80
2023-04-05T06:56:25.533Z,-0.80
2023-04-05T06:57:58.734Z,-0.80
2023-04-05T06:59:32.038Z,-0.70
2023-04-05T07:01:07.447Z,-0.70
2023-04-05T07:02:42.004Z,-0.50
2023-04-05T07:04:15.255Z,-0.50
2023-04-05T07:05:53.380Z,-0.50
2023-04-05T07:07:27.013Z,-0.40
2023-04-05T07:09:00.489Z,-0.40
2023-04-05T07:10:33.669Z,-0.30
2023-04-05T07:12:09.178Z,-0.30
2023-04-05T07:13:42.521Z,-0.20
2023-04-05T07:15:15.945Z,-0.10
2023-04-05T07:16:49.848Z,-0.10
2023-04-05T07:18:24.761Z,0.00
2023-04-05T07:19:58.023Z,0.10
2023-04-05T07:21:31.194Z,0.10
2023-04-05T07:23:05.511Z,0.20
2023-04-05T07:24:38.680Z,0.30
2023-04-05T07:26:12.426Z,0.40
2023-04-05T07:27:45.672Z,0.40
2023-04-05T07:29:18.934Z,0.50
2023-04-05T07:30:53.011Z,0.60
2023-04-05T07:32:26.258Z,0.60
2023-04-05T07:34:02.592Z,0.70
2023-04-05T07:35:36.682Z,0.80
2023-04-05T07:37:09.968Z,0.90
2023-04-05T07:38:43.189Z,0.90
2023-04-05T07:40:16.854Z,1.00
2023-04-05T07:41:49.987Z,1.10
2023-04-05T07:43:25.427Z,1.20
2023-04-05T07:44:58.658Z,1.20
2023-04-05T07:46:31.885Z,1.40
2023-04-05T07:48:05.583Z,1.40
2023-04-05T07:49:40.154Z,1.50
2023-04-05T07:51:13.346Z,1.60
2023-04-05T07:52:46.550Z,1.70
2023-04-05T07:54:19.749Z,1.80
2023-04-05T07:55:53.437Z,1.90
2023-04-05T07:57:27.290Z,2.00
2023-04-05T07:59:01.484Z,2.10
2023-04-05T08:00:34.697Z,2.30
2023-04-05T08:02:14.663Z,2.50
2023-04-05T08:03:48.399Z,2.50
2023-04-05T08:05:23.079Z,2.60
2023-04-05T08:06:56.426Z,2.70
2023-04-05T08:08:29.658Z,2.80
2023-04-05T08:10:03.108Z,3.00
2023-04-05T08:11:36.509Z,3.00
2023-04-05T08:13:09.739Z,3.20
2023-04-05T08:14:43.030Z,3.40
2023-04-05T08:16:16.293Z,3.40
2023-04-05T08:17:49.662Z,3.50
2023-04-05T08:19:23.044Z,3.70
2023-04-05T08:20:59.030Z,3.80
2023-04-05T08:22:32.268Z,3.90
2023-04-05T08:24:06.097Z,4.00
2023-04-05T08:25:41.969Z,4.10
2023-04-05T08:27:15.783Z,4.30
2023-04-05T08:28:49.028Z,4.40
2023-04-05T08:30:23.205Z,4.60
2023-04-05T08:31:58.437Z,4.60
2023-04-05T08:33:31.826Z,4.80
2023-04-05T08:35:05.985Z,4.90
2023-04-05T08:36:40.797Z,5.00
2023-04-05T08:38:14.072Z,5.10
2023-04-05T08:39:47.355Z,5.20
2023-04-05T08:41:24.653Z,5.30
2023-04-05T08:43:16.640Z,5.50
2023-04-05T08:44:53.881Z,5.60
2023-04-05T08:46:28.230Z,5.80
2023-04-05T08:48:01.848Z,5.80
2023-04-05T08:49:35.183Z,5.90
2023-04-05T08:51:09.408Z,6.00
2023-04-05T08:52:49.733Z,6.10
2023-04-05T08:54:22.972Z,6.30
2023-04-05T08:55:58.237Z,6.40
2023-04-05T08:57:33.961Z,6.50
2023-04-05T08:59:12.392Z,6.50
2023-04-05T09:00:46.329Z,6.70
2023-04-05T09:02:24.337Z,6.80
2023-04-05T09:04:01.077Z,6.80
2023-04-05T09:05:38.285Z,6.90
2023-04-05T09:07:15.346Z,7.00
2023-04-05T09:08:51.430Z,7.10
2023-04-05T09:10:27.185Z,7.10
2023-04-05T09:12:01.259Z,7.20
2023-04-05T09:13:34.549Z,7.30
2023-04-05T09:15:09.725Z,7.30
2023-04-05T09:16:44.121Z,7.40
2023-04-05T09:18:26.154Z,7.50
2023-04-05T09:20:00.618Z,7.50
2023-04-05T09:22:00.560Z,7.70
2023-04-05T09:23:35.369Z,7.60
2023-04-05T09:25:10.834Z,7.70
2023-04-05T09:26:45.266Z,7.80
2023-04-05T09:28:18.525Z,7.80
2023-04-05T09:29:52.116Z,7.80
2023-04-05T09:31:34.477Z,7.90
2023-04-05T09:33:10.748Z,7.90
2023-04-05T09:34:45.234Z,8.00
2023-04-05T09:36:26.089Z,8.00
2023-04-05T09:38:02.301Z,8.10
2023-04-05T09:39:36.454Z,8.10
2023-04-05T09:41:12.082Z,8.20
2023-04-05T09:42:46.720Z,8.30
2023-04-05T09:44:20.069Z,8.30
2023-04-05T09:45:53.420Z,8.50
2023-04-05T09:47:32.679Z,8.50
2023-04-05T09:49:10.154Z,8.60
2023-04-05T09:50:43.742Z,8.60
2023-04-05T09:52:24.915Z,8.80
2023-04-05T09:53:59.783Z,8.80
2023-04-05T09:55:33.243Z,8.80
2023-04-05T09:57:07.898Z,8.90
2023-04-05T09:58:41.089Z,9.00
2023-04-05T10:00:21.303Z,9.00
2023-04-05T10:01:54.651Z,9.10
2023-04-05T10:03:28.636Z,9.20
2023-04-05T10:05:08.138Z,9.20
2023-04-05T10:06:43.541Z,9.30
2023-04-05T10:08:17.749Z,9.30
2023-04-05T10:09:51.091Z,9.50
2023-04-05T10:11:25.478Z,9.50
2023-04-05T10:13:00.908Z,9.50
2023-04-05T10:14:34.129Z,9.60
2023-04-05T10:16:13.844Z,9.70
2023-04-05T10:17:53.319Z,9.70
2023-04-05T10:19:33.154Z,9.90
2023-04-05T10:21:07.460Z,9.80
2023-04-05T10:23:00.913Z,9.80
2023-04-05T10:24:41.554Z,9.90
2023-04-05T10:26:21.769Z,9.90
2023-04-05T10:28:03.647Z,10.00
2023-04-05T10:29:48.711Z,10.10
2023-04-05T10:31:38.138Z,10.10
2023-04-05T10:33:22.837Z,10.20
2023-04-05T10:35:05.722Z,10.30
2023-04-05T10:36:51.684Z,10.40
2023-04-05T10:38:28.056Z,10.40
2023-04-05T10:40:09.261Z,10.50
2023-04-05T10:41:50.274Z,10.50
2023-04-05T10:43:27.811Z,10.50
2023-04-05T10:45:11.428Z,10.60
2023-04-05T10:46:47.373Z,10.70
2023-04-05T10:48:35.623Z,10.80
2023-04-05T10:50:17.544Z,10.80
2023-04-05T10:51:52.596Z,10.90
2023-04-05T10:53:27.790Z,10.90
2023-04-05T10:55:03.355Z,11.00
2023-04-05T10:56:38.282Z,11.00
2023-04-05T10:58:11.832Z,11.00
2023-04-05T10:59:47.805Z,11.10
2023-04-05T11:01:23.836Z,11.10
2023-04-05T11:02:57.463Z,11.10
2023-04-05T11:04:30.822Z,11.10
2023-04-05T11:06:23.580Z,11.30
2023-04-05T11:08:05.449Z,11.20
2023-04-05T11:09:41.496Z,11.40
2023-04-05T11:11:18.842Z,11.40
2023-04-05T11:13:07.355Z,11.40
2023-04-05T11:14:40.924Z,11.50
2023-04-05T11:16:14.382Z,11.50
2023-04-05T11:18:04.812Z,11.50
2023-04-05T11:19:52.371Z,11.60
2023-04-05T11:21:27.467Z,11.60
2023-04-05T11:23:01.144Z,11.60
2023-04-05T11:24:56.326Z,11.70
2023-04-05T11:26:33.926Z,11.70
2023-04-05T11:28:08.569Z,11.70
2023-04-05T11:29:50.644Z,11.80
2023-04-05T11:31:26.931Z,11.80
2023-04-05T11:33:01.687Z,11.90
2023-04-05T11:34:37.687Z,11.90
2023-04-05T11:36:11.175Z,11.90
2023-04-05T11:38:09.379Z,12.10
2023-04-05T11:39:42.667Z,11.90
2023-04-05T11:41:19.063Z,11.90
2023-04-05T11:43:01.285Z,11.90
2023-04-05T11:44:46.660Z,11.90
2023-04-05T11:46:20.402Z,11.80
2023-04-05T11:47:54.077Z,11.80
2023-04-05T11:49:29.821Z,11.80
2023-04-05T11:51:10.363Z,11.70
2023-04-05T11:52:43.540Z,11.70
2023-04-05T11:54:29.379Z,11.70
2023-04-05T11:56:12.569Z,11.60
2023-04-05T11:57:46.107Z,11.60
2023-04-05T11:59:19.720Z,11.70
2023-04-05T12:01:01.453Z,11.50
2023-04-05T12:02:36.250Z,11.50
2023-04-05T12:04:09.333Z,11.50
2023-04-05T12:05:55.329Z,11.40
2023-04-05T12:07:32.842Z,11.40
2023-04-05T12:09:08.468Z,11.30
2023-04-05T12:10:41.695Z,11.20
2023-04-05T12:12:18.115Z,11.20
2023-04-05T12:13:56.652Z,11.20
2023-04-05T12:15:29.883Z,11.10
2023-04-05T12:17:03.333Z,11.20
2023-04-05T12:18:38.983Z,11.10
2023-04-05T12:20:15.513Z,11.00
2023-04-05T12:21:50.401Z,10.90
2023-04-05T12:23:24.344Z,10.90
2023-04-05T12:24:57.704Z,10.80
2023-04-05T12:26:34.174Z,10.80
2023-04-05T12:28:09.009Z,10.80
2023-04-05T12:29:42.065Z,10.80
2023-04-05T12:31:15.571Z,10.70
2023-04-05T12:32:52.514Z,10.70
2023-04-05T12:34:26.871Z,10.70
2023-04-05T12:36:05.711Z,10.80
2023-04-05T12:37:41.445Z,10.90
2023-04-05T12:39:17.417Z,10.70
2023-04-05T12:40:55.025Z,10.70
2023-04-05T12:42:33.542Z,10.70
2023-04-05T12:44:12.369Z,10.70
2023-04-05T12:45:45.998Z,10.70
2023-04-05T12:47:19.440Z,10.70
2023-04-05T12:48:53.587Z,10.70
2023-04-05T12:50:29.527Z,10.70
2023-04-05T12:52:03.473Z,10.70
2023-04-05T12:53:47.924Z,10.60
2023-04-05T12:55:22.148Z,10.60
2023-04-05T12:56:55.775Z,10.60
2023-04-05T12:58:35.782Z,10.60
2023-04-05T13:00:11.482Z,10.60
2023-04-05T13:01:44.735Z,10.70
2023-04-05T13:03:20.727Z,10.70
2023-04-05T13:04:54.524Z,10.70
2023-04-05T13:06:28.023Z,10.70
2023-04-05T13:08:01.277Z,10.80
2023-04-05T13:09:36.936Z,10.90
2023-04-05T13:11:10.203Z,10.90
2023-04-05T13:12:43.611Z,11.00
2023-04-05T13:14:17.834Z,11.10
2023-04-05T13:15:52.303Z,11.20
2023-04-05T13:17:25.852Z,11.30
2023-04-05T13:18:59.158Z,11.40
2023-04-05T13:20:32.632Z,11.40
2023-04-05T13:22:06.060Z,11.50
2023-04-05T13:23:41.250Z,11.60
2023-04-05T13:25:16.602Z,11.60
2023-04-05T13:26:49.793Z,11.70
2023-04-05T13:28:23.301Z,11.80
2023-04-05T13:29:56.448Z,11.80
2023-04-05T13:31:29.718Z,11.90
2023-04-05T13:33:04.344Z,12.00
2023-04-05T13:34:37.723Z,12.00
2023-04-05T13:36:12.530Z,12.00
2023-04-05T13:37:45.988Z,12.00
2023-04-05T13:39:19.275Z,12.10
2023-04-05T13:40:54.027Z,12.10
2023-04-05T13:42:27.247Z,12.10
2023-04-05T13:44:02.434Z,12.20
2023-04-05T13:45:37.630Z,12.20
2023-04-05T13:47:10.930Z,12.30
2023-04-05T13:48:44.080Z,12.30
2023-04-05T13:50:17.439Z,12.40
2023-04-05T13:51:50.694Z,12.40
2023-04-05T13:53:23.919Z,12.60
2023-04-05T13:55:02.241Z,12.60
2023-04-05T13:56:38.651Z,12.50
2023-04-05T13:58:11.777Z,12.50
2023-04-05T13:59:45.107Z,12.50
2023-04-05T14:01:18.682Z,12.50
2023-04-05T14:02:52.983Z,12.50
2023-04-05T14:04:26.246Z,12.50
2023-04-05T14:05:59.493Z,12.50
2023-04-05T14:07:33.137Z,12.40
2023-04-05T14:09:06.473Z,12.40
2023-04-05T14:10:39.830Z,12.40
2023-04-05T14:12:14.728Z,12.40
2023-04-05T14:13:47.851Z,12.40
2023-04-05T14:15:21.473Z,12.40
2023-04-05T14:16:54.718Z,12.30
2023-04-05T14:18:28.172Z,12.30
2023-04-05T14:20:01.777Z,12.30
2023-04-05T14:21:37.131Z,12.30
2023-04-05T14:23:10.302Z,12.30
2023-04-05T14:24:43.614Z,12.30
2023-04-05T14:26:16.973Z,12.30
2023-04-05T14:27:51.542Z,12.30
2023-04-05T14:29:24.873Z,12.30
2023-04-05T14:30:59.225Z,12.30
2023-04-05T14:32:33.920Z,12.30
2023-04-05T14:34:07.273Z,12.30
2023-04-05T14:35:40.433Z,12.30
2023-04-05T14:37:13.845Z,12.30
2023-04-05T14:38:47.631Z,12.30
2023-04-05T14:40:21.141Z,12.30
2023-04-05T14:41:54.460Z,12.30
2023-04-05T14:43:29.132Z,12.30
2023-04-05T14:45:02.346Z,12.30
2023-04-05T14:46:35.560Z,12.20
2023-04-05T14:48:08.818Z,12.20
2023-04-05T14:49:42.154Z,12.20
2023-04-05T14:51:15.502Z,12.20
2023-04-05T14:52:48.957Z,12.20
2023-04-05T14:54:22.101Z,12.20
2023-04-05T14:55:54.379Z,12.20
2023-04-05T14:57:27.562Z,12.20
2023-04-05T14:59:02.476Z,12.20
2023-04-05T15:00:36.026Z,12.10
2023-04-05T15:02:10.091Z,12.20
2023-04-05T15:03:44.167Z,12.20
2023-04-05T15:05:16.682Z,12.20
2023-04-05T15:06:50.252Z,12.30
2023-04-05T15:08:23.736Z,12.40
2023-04-05T15:09:57.081Z,12.30
2023-04-05T15:11:34.104Z,12.40
2023-04-05T15:13:07.440Z,12.50
2023-04-05T15:14:42.095Z,12.50
2023-04-05T15:16:15.305Z,12.60
2023-04-05T15:17:48.512Z,12.70
2023-04-05T15:19:21.935Z,12.70
2023-04-05T15:20:55.262Z,12.80
2023-04-05T15:22:28.858Z,12.80
2023-04-05T15:24:02.467Z,12.90
2023-04-05T15:25:35.662Z,12.90
2023-04-05T15:27:09.466Z,13.00
2023-04-05T15:28:42.612Z,13.00
2023-04-05T15:30:17.757Z,13.10
2023-04-05T15:31:51.687Z,13.10
2023-04-05T15:33:25.011Z,13.10
2023-04-05T15:34:58.258Z,13.20
2023-04-05T15:36:31.508Z,13.10
2023-04-05T15:38:04.850Z,13.10
2023-04-05T15:39:38.431Z,13.10
2023-04-05T15:41:12.466Z,13.10
2023-04-05T15:42:45.848Z,13.10
2023-04-05T15:44:18.225Z,13.00
2023-04-05T15:45:52.842Z,13.00
2023-04-05T15:47:26.142Z,12.90
2023-04-05T15:48:59.934Z,12.90
2023-04-05T15:50:33.365Z,12.80
2023-04-05T15:52:06.682Z,12.80
2023-04-05T15:53:39.869Z,12.70
2023-04-05T15:55:13.082Z,12.60
2023-04-05T15:56:46.417Z,12.60
2023-04-05T15:58:19.586Z,12.50
2023-04-05T15:59:52.801Z,12.50
2023-04-05T16:01:27.410Z,12.40
2023-04-05T16:03:01.187Z,12.30
2023-04-05T16:04:34.596Z,12.20
2023-04-05T16:06:08.158Z,12.10
2023-04-05T16:07:41.752Z,12.10
2023-04-05T16:09:14.913Z,12.00
2023-04-05T16:10:48.133Z,12.00
2023-04-05T16:12:21.526Z,11.90
2023-04-05T16:13:55.075Z,11.90
2023-04-05T16:15:28.506Z,11.80
2023-04-05T16:17:03.313Z,11.80
2023-04-05T16:18:36.353Z,11.80
2023-04-05T16:20:10.701Z,11.80
2023-04-05T16:21:43.990Z,11.70
2023-04-05T16:23:17.222Z,11.70
2023-04-05T16:24:50.826Z,11.60
2023-04-05T16:26:24.316Z,11.60
2023-04-05T16:27:57.555Z,11.60
2023-04-05T16:29:30.946Z,11.50
2023-04-05T16:31:04.167Z,11.50
2023-04-05T16:32:38.694Z,11.50
2023-04-05T16:34:11.891Z,11.50
2023-04-05T16:35:45.384Z,11.40
2023-04-05T16:37:18.676Z,11.40
2023-04-05T16:38:52.032Z,11.40
2023-04-05T16:40:26.041Z,11.40
2023-04-05T16:41:59.933Z,11.40
2023-04-05T16:43:33.152Z,11.30
2023-04-05T16:45:08.176Z,11.30
2023-04-05T16:46:41.575Z,11.20
2023-04-05T16:48:16.170Z,11.20
2023-04-05T16:49:49.324Z,11.10
2023-04-05T16:51:22.523Z,11.10
2023-04-05T16:52:55.776Z,11.10
2023-04-05T16:54:28.934Z,11.10
2023-04-05T16:56:02.089Z,11.00
2023-04-05T16:57:35.979Z,11.00
2023-04-05T16:59:09.637Z,11.00
2023-04-05T17:00:43.548Z,10.90
2023-04-05T17:02:17.949Z,10.80
2023-04-05T17:03:52.732Z,10.80
2023-04-05T17:05:26.391Z,10.80
2023-04-05T17:06:59.632Z,10.70
2023-04-05T17:08:32.854Z,10.70
2023-04-05T17:10:07.572Z,10.60
2023-04-05T17:11:40.945Z,10.60
2023-04-05T17:13:15.391Z,10.50
2023-04-05T17:14:48.748Z,10.40
2023-04-05T17:16:23.511Z,10.40
2023-04-05T17:17:56.806Z,10.30
2023-04-05T17:19:32.022Z,10.30
2023-04-05T17:21:06.288Z,10.20
2023-04-05T17:22:41.301Z,10.20
2023-04-05T17:24:14.693Z,10.10
2023-04-05T17:25:48.269Z,10.00
2023-04-05T17:27:23.936Z,10.00
2023-04-05T17:28:59.167Z,10.00
2023-04-05T17:30:32.992Z,9.90
2023-04-05T17:32:08.140Z,9.80
2023-04-05T17:33:41.477Z,9.70
2023-04-05T17:35:16.185Z,9.70
2023-04-05T17:36:49.699Z,9.60
2023-04-05T17:38:23.036Z,9.50
2023-04-05T17:39:56.654Z,9.50
2023-04-05T17:41:30.228Z,9.40
2023-04-05T17:43:03.602Z,9.40
2023-04-05T17:44:37.115Z,9.30
2023-04-05T17:46:13.678Z,9.30
2023-04-05T17:47:47.120Z,9.20
2023-04-05T17:49:20.759Z,9.10
2023-04-05T17:50:55.605Z,9.10
2023-04-05T17:52:28.977Z,9.00
2023-04-05T17:54:02.424Z,8.90
2023-04-05T17:55:36.250Z,8.90
2023-04-05T17:57:15.036Z,8.80
2023-04-05T17:58:48.574Z,8.80
2023-04-05T18:00:22.517Z,8.70
2023-04-05T18:01:56.322Z,8.60
2023-04-05T18:03:29.829Z,8.60
2023-04-05T18:05:03.879Z,8.50
2023-04-05T18:06:38.691Z,8.40
2023-04-05T18:08:11.803Z,8.30
2023-04-05T18:09:45.803Z,8.30
2023-04-05T18:11:19.129Z,8.20
2023-04-05T18:12:52.485Z,8.20
2023-04-05T18:14:26.371Z,8.10
2023-04-05T18:16:00.959Z,8.00
2023-04-05T18:17:34.862Z,7.90
2023-04-05T18:19:08.317Z,7.90
2023-04-05T18:20:41.912Z,7.80
2023-04-05T18:22:18.205Z,7.80
2023-04-05T18:23:51.687Z,7.70
2023-04-05T18:25:25.243Z,7.80
2023-04-05T18:26:58.560Z,7.70
2023-04-05T18:28:35.268Z,7.50
2023-04-05T18:30:10.384Z,7.50
2023-04-05T18:31:43.909Z,7.50
2023-04-05T18:33:18.629Z,7.40
2023-04-05T18:34:52.132Z,7.30
2023-04-05T18:36:26.691Z,7.30
2023-04-05T18:38:01.365Z,7.20
2023-04-05T18:39:34.802Z,7.10
2023-04-05T18:41:09.705Z,7.10
2023-04-05T18:42:43.829Z,7.00
2023-04-05T18:44:17.589Z,7.00
2023-04-05T18:45:54.755Z,6.90
2023-04-05T18:47:29.027Z,6.80
2023-04-05T18:49:02.479Z,6.80
2023-04-05T18:50:36.978Z,6.70
2023-04-05T18:52:11.173Z,6.60
2023-04-05T18:53:45.992Z,6.60
2023-04-05T18:55:20.142Z,6.50
2023-04-05T18:56:53.539Z,6.50
2023-04-05T18:58:26.889Z,6.40
2023-04-05T19:00:00.320Z,6.40
2023-04-05T19:01:33.801Z,6.30
2023-04-05T19:03:07.240Z,6.20
2023-04-05T19:04:41.016Z,6.20
2023-04-05T19:06:15.424Z,6.10
2023-04-05T19:07:48.879Z,6.00
2023-04-05T19:09:23.639Z,6.00
2023-04-05T19:10:56.925Z,5.90
2023-04-05T19:12:30.261Z,5.90
2023-04-05T19:14:03.941Z,5.80
2023-04-05T19:15:38.808Z,5.80
2023-04-05T19:17:12.510Z,5.70
2023-04-05T19:18:45.924Z,5.60
2023-04-05T19:20:19.390Z,5.80
2023-04-05T19:21:52.844Z,5.50
2023-04-05T19:23:27.454Z,5.50
2023-04-05T19:25:02.214Z,5.40
2023-04-05T19:26:35.595Z,5.40
2023-04-05T19:28:08.966Z,5.30
2023-04-05T19:29:42.257Z,5.30
2023-04-05T19:31:16.207Z,5.20
2023-04-05T19:32:54.134Z,5.20
2023-04-05T19:34:27.959Z,5.10
2023-04-05T19:36:01.267Z,5.10
2023-04-05T19:37:35.653Z,5.00
2023-04-05T19:39:11.371Z,4.90
2023-04-05T19:40:46.354Z,4.90
2023-04-05T19:42:19.585Z,5.00
2023-04-05T19:43:53.010Z,4.80
2023-04-05T19:45:28.764Z,4.80
2023-04-05T19:47:02.385Z,4.70
2023-04-05T19:48:39.317Z,4.70
2023-04-05T19:50:49.766Z,4.60
2023-04-05T19:52:40.426Z,4.50
2023-04-05T19:54:14.781Z,4.50
2023-04-05T19:55:48.916Z,4.40
2023-04-05T19:57:22.490Z,4.60
2023-04-05T19:59:00.884Z,4.30
2023-04-05T20:00:38.148Z,4.30
2023-04-05T20:02:37.556Z,4.20
2023-04-05T20:04:14.644Z,4.20
2023-04-05T20:06:04.075Z,4.10
2023-04-05T20:07:37.959Z,4.10
2023-04-05T20:09:18.191Z,4.00
2023-04-05T20:10:53.201Z,4.00
2023-04-05T20:12:26.485Z,3.90
2023-04-05T20:14:02.002Z,3.90
2023-04-05T20:15:36.983Z,3.90
2023-04-05T20:17:12.202Z,3.80
2023-04-05T20:18:46.465Z,3.80
2023-04-05T20:20:19.885Z,3.80
2023-04-05T20:21:53.202Z,3.70
2023-04-05T20:23:30.359Z,3.70
2023-04-05T20:25:27.915Z,3.60
2023-04-05T20:27:03.106Z,3.60
2023-04-05T20:28:39.049Z,3.50
2023-04-05T20:30:13.704Z,3.50
2023-04-05T20:31:47.764Z,3.50
2023-04-05T20:33:54.242Z,3.40
2023-04-05T20:35:33.264Z,3.40
2023-04-05T20:37:09.759Z,3.50
2023-04-05T20:38:45.556Z,3.30
2023-04-05T20:40:22.053Z,3.30
2023-04-05T20:41:56.531Z,3.20
2023-04-05T20:43:31.517Z,3.20
2023-04-05T20:45:05.541Z,3.10
2023-04-05T20:46:39.328Z,3.10
2023-04-05T20:48:12.164Z,3.10
2023-04-05T20:49:47.439Z,3.00
2023-04-05T20:51:20.974Z,3.00
2023-04-05T20:52:54.269Z,3.00